createdAt,value
2018-11-21T00:00:04.248Z,4.6
2018-11-21T00:00:54.580Z,4.6
2018-11-21T00:01:44.638Z,4.6
2018-11-21T00:02:34.421Z,4.6
2018-11-21T00:03:25.036Z,4.6
2018-11-21T00:04:14.814Z,4.6
2018-11-21T00:05:04.869Z,4.6
2018-11-21T00:05:54.931Z,4.6
2018-11-21T00:06:45.531Z,4.6
2018-11-21T00:25:02.464Z,4.5
2018-11-21T00:25:52.517Z,4.5
2018-11-21T00:26:42.848Z,4.5
2018-11-21T00:27:32.323Z,4.5
2018-11-21T00:28:22.120Z,4.5
2018-11-21T00:29:12.477Z,4.5
2018-11-21T00:30:02.749Z,4.5
2018-11-21T00:30:52.870Z,4.5
2018-11-21T00:31:42.897Z,4.5
2018-11-21T00:32:32.397Z,4.5
2018-11-21T00:33:22.617Z,4.5
2018-11-21T00:34:13.382Z,4.5
2018-11-21T00:35:04.024Z,4.4
2018-11-21T00:35:53.213Z,4.4
2018-11-21T00:36:43.811Z,4.4
2018-11-21T00:37:32.737Z,4.4
2018-11-21T00:38:23.401Z,4.4
2018-11-21T00:39:13.151Z,4.4
2018-11-21T00:40:03.202Z,4.4
2018-11-21T00:40:53.049Z,4.4
2018-11-21T00:41:43.276Z,4.4
2018-11-21T00:42:33.612Z,4.4
2018-11-21T00:43:23.742Z,4.4
2018-11-21T00:44:13.779Z,4.4
2018-11-21T00:45:03.838Z,4.4
2018-11-21T00:45:53.919Z,4.4
2018-11-21T00:46:43.731Z,4.3
2018-11-21T00:47:34.521Z,4.4
2018-11-21T00:48:24.077Z,4.4
2018-11-21T00:49:13.645Z,4.4
2018-11-21T00:50:04.186Z,4.4
2018-11-21T00:50:54.543Z,4.3
2018-11-21T00:51:44.281Z,4.3
2018-11-21T00:52:34.075Z,4.3
2018-11-21T00:53:24.416Z,4.3
2018-11-21T00:54:14.213Z,4.3
2018-11-21T00:55:04.033Z,4.3
2018-11-21T00:55:54.309Z,4.3
2018-11-21T00:56:44.766Z,4.3
2018-11-21T00:57:34.155Z,4.3
2018-11-21T00:58:24.478Z,4.3
2018-11-21T00:59:14.539Z,4.3
2018-11-21T01:00:04.910Z,4.3
2018-11-21T01:00:55.239Z,4.3
2018-11-21T01:01:44.717Z,4.3
2018-11-21T01:02:35.373Z,4.3
2018-11-21T01:03:24.643Z,4.3
2018-11-21T01:04:15.470Z,4.3
2018-11-21T01:05:05.509Z,4.3
2018-11-21T01:05:55.019Z,4.3
2018-11-21T01:06:45.315Z,4.3
2018-11-21T01:07:35.962Z,4.3
2018-11-21T01:08:26.054Z,4.3
2018-11-21T01:09:15.246Z,4.3
2018-11-21T01:10:05.440Z,4.3
2018-11-21T01:10:55.683Z,4.3
2018-11-21T01:11:46.025Z,4.3
2018-11-21T01:12:36.068Z,4.3
2018-11-21T01:13:26.118Z,4.3
2018-11-21T01:14:16.154Z,4.3
2018-11-21T01:15:06.239Z,4.3
2018-11-21T01:15:55.981Z,4.3
2018-11-21T01:16:46.617Z,4.3
2018-11-21T01:17:36.658Z,4.4
2018-11-21T01:18:26.479Z,4.4
2018-11-21T01:19:16.544Z,4.4
2018-11-21T01:20:06.593Z,4.3
2018-11-21T01:20:56.621Z,4.4
2018-11-21T01:21:46.199Z,4.4
2018-11-21T01:22:36.268Z,4.4
2018-11-21T01:23:27.136Z,4.4
2018-11-21T01:24:16.089Z,4.4
2018-11-21T01:25:06.352Z,4.4
2018-11-21T01:25:56.414Z,4.4
2018-11-21T01:26:46.747Z,4.4
2018-11-21T01:27:36.886Z,4.4
2018-11-21T01:28:26.863Z,4.4
2018-11-21T01:29:17.186Z,4.4
2018-11-21T01:30:06.969Z,4.4
2018-11-21T01:30:57.350Z,4.4
2018-11-21T01:31:47.105Z,4.4
2018-11-21T01:32:37.157Z,4.4
2018-11-21T01:33:27.234Z,4.4
2018-11-21T01:34:17.568Z,4.4
2018-11-21T01:35:07.056Z,4.4
2018-11-21T01:35:57.693Z,4.4
2018-11-21T01:36:47.758Z,4.4
2018-11-21T01:37:37.483Z,4.4
2018-11-21T01:38:27.561Z,4.4
2018-11-21T01:39:17.615Z,4.4
2018-11-21T01:40:07.393Z,4.4
2018-11-21T01:40:57.733Z,4.4
2018-11-21T01:41:48.108Z,4.4
2018-11-21T01:42:38.136Z,4.4
2018-11-21T01:43:27.626Z,4.4
2018-11-21T01:44:18.273Z,4.4
2018-11-21T01:45:08.030Z,4.4
2018-11-21T01:45:57.517Z,4.4
2018-11-21T01:46:48.493Z,4.5
2018-11-21T01:47:38.542Z,4.4
2018-11-21T01:48:27.962Z,4.4
2018-11-21T01:49:18.331Z,4.4
2018-11-21T01:50:08.377Z,4.5
2018-11-21T01:50:58.432Z,4.5
2018-11-21T01:51:48.224Z,4.4
2018-11-21T01:52:39.077Z,4.5
2018-11-21T01:53:29.121Z,4.5
2018-11-21T01:54:18.088Z,4.5
2018-11-21T01:55:09.001Z,4.5
2018-11-21T01:55:58.487Z,4.5
2018-11-21T01:56:49.126Z,4.5
2018-11-21T01:57:38.599Z,4.5
2018-11-21T01:58:28.953Z,4.5
2018-11-21T01:59:19.024Z,4.5
2018-11-21T02:00:09.089Z,4.6
2018-11-21T02:00:59.414Z,4.5
2018-11-21T02:01:49.209Z,4.5
2018-11-21T02:02:39.270Z,4.6
2018-11-21T02:03:29.534Z,4.6
2018-11-21T02:04:19.086Z,4.6
2018-11-21T02:05:09.436Z,4.6
2018-11-21T02:05:59.498Z,4.6
2018-11-21T02:06:49.258Z,4.6
2018-11-21T02:07:39.119Z,4.6
2018-11-21T02:08:29.718Z,4.6
2018-11-21T02:09:19.646Z,4.6
2018-11-21T02:10:09.485Z,4.6
2018-11-21T02:10:59.827Z,4.6
2018-11-21T02:11:49.614Z,4.6
2018-11-21T02:12:39.548Z,4.6
2018-11-21T02:13:29.788Z,4.6
2018-11-21T02:14:19.797Z,4.6
2018-11-21T02:15:10.125Z,4.6
2018-11-21T02:16:00.493Z,4.6
2018-11-21T02:16:50.240Z,4.6
2018-11-21T02:17:40.278Z,4.6
2018-11-21T02:18:30.393Z,4.6
2018-11-21T02:19:20.398Z,4.6
2018-11-21T02:20:09.698Z,4.6
2018-11-21T02:21:00.528Z,4.6
2018-11-21T02:21:50.388Z,4.6
2018-11-21T02:22:40.937Z,4.6
2018-11-21T02:23:30.669Z,4.6
2018-11-21T02:24:20.765Z,4.6
2018-11-21T02:25:10.542Z,4.6
2018-11-21T02:26:00.597Z,4.6
2018-11-21T02:26:50.922Z,4.6
2018-11-21T02:27:41.305Z,4.6
2018-11-21T02:28:30.555Z,4.7
2018-11-21T02:29:20.632Z,4.7
2018-11-21T02:30:10.869Z,4.6
2018-11-21T02:31:01.517Z,4.7
2018-11-21T02:31:51.283Z,4.7
2018-11-21T02:32:41.649Z,4.7
2018-11-21T02:33:31.729Z,4.7
2018-11-21T02:34:21.547Z,4.7
2018-11-21T02:35:11.568Z,4.7
2018-11-21T02:36:01.851Z,4.7
2018-11-21T02:36:51.960Z,4.7
2018-11-21T02:37:41.397Z,4.7
2018-11-21T02:38:32.349Z,4.7
2018-11-21T02:39:21.824Z,4.7
2018-11-21T02:40:11.686Z,4.7
2018-11-21T02:41:02.234Z,4.7
2018-11-21T02:41:51.961Z,4.8
2018-11-21T02:42:42.114Z,4.8
2018-11-21T02:43:32.167Z,4.8
2018-11-21T02:44:22.147Z,4.8
2018-11-21T02:45:12.237Z,4.8
2018-11-21T02:46:01.704Z,4.8
2018-11-21T02:46:52.339Z,4.8
2018-11-21T02:47:42.413Z,4.8
2018-11-21T02:48:32.440Z,4.8
2018-11-21T02:49:22.819Z,4.8
2018-11-21T02:50:12.571Z,4.8
2018-11-21T02:51:02.991Z,4.8
2018-11-21T02:51:52.701Z,4.8
2018-11-21T02:52:43.029Z,4.8
2018-11-21T02:53:32.526Z,4.8
2018-11-21T02:54:22.964Z,4.8
2018-11-21T02:55:12.933Z,4.8
2018-11-21T02:56:02.395Z,4.8
2018-11-21T02:56:53.309Z,4.8
2018-11-21T02:57:43.079Z,4.8
2018-11-21T02:58:32.868Z,4.8
2018-11-21T02:59:23.223Z,4.8
2018-11-21T03:00:12.960Z,4.8
2018-11-21T03:01:03.061Z,4.8
2018-11-21T03:01:53.080Z,4.8
2018-11-21T03:02:43.748Z,4.8
2018-11-21T03:03:33.485Z,4.8
2018-11-21T03:04:23.844Z,4.8
2018-11-21T03:05:13.341Z,4.8
2018-11-21T03:06:03.983Z,4.8
2018-11-21T03:06:53.455Z,4.8
2018-11-21T03:07:44.080Z,4.8
2018-11-21T03:08:34.149Z,4.8
2018-11-21T03:09:24.144Z,4.8
2018-11-21T03:10:13.980Z,4.8
2018-11-21T03:11:03.542Z,4.8
2018-11-21T03:11:54.400Z,4.8
2018-11-21T03:12:44.130Z,4.8
2018-11-21T03:13:34.210Z,4.8
2018-11-21T03:14:24.287Z,4.8
2018-11-21T03:15:13.982Z,4.8
2018-11-21T03:16:04.094Z,4.8
2018-11-21T03:16:54.702Z,4.8
2018-11-21T03:17:44.489Z,4.8
2018-11-21T03:18:34.270Z,4.8
2018-11-21T03:19:24.667Z,4.8
2018-11-21T03:20:14.414Z,4.7
2018-11-21T03:21:04.440Z,4.7
2018-11-21T03:21:54.580Z,4.7
2018-11-21T03:22:45.124Z,4.7
2018-11-21T03:23:34.916Z,4.7
2018-11-21T03:24:25.209Z,4.7
2018-11-21T03:25:14.459Z,4.6
2018-11-21T03:26:05.073Z,4.6
2018-11-21T03:26:54.657Z,4.6
2018-11-21T03:27:45.466Z,4.6
2018-11-21T03:28:35.247Z,4.6
2018-11-21T03:29:25.028Z,4.6
2018-11-21T03:30:15.369Z,4.6
2018-11-21T03:31:04.949Z,4.6
2018-11-21T03:31:55.187Z,4.6
2018-11-21T03:32:45.580Z,4.6
2018-11-21T03:33:35.589Z,4.6
2018-11-21T03:34:25.171Z,4.6
2018-11-21T03:35:15.703Z,4.6
2018-11-21T03:36:05.555Z,4.6
2018-11-21T03:36:55.589Z,4.6
2018-11-21T03:37:46.189Z,4.6
2018-11-21T03:38:35.970Z,4.6
2018-11-21T03:39:26.008Z,4.6
2018-11-21T03:40:15.495Z,4.6
2018-11-21T03:41:06.697Z,4.6
2018-11-21T03:41:56.456Z,4.6
2018-11-21T03:42:46.235Z,4.6
2018-11-21T03:43:36.275Z,4.6
2018-11-21T03:44:26.079Z,4.6
2018-11-21T03:45:16.145Z,4.6
2018-11-21T03:46:05.888Z,4.6
2018-11-21T03:46:56.261Z,4.6
2018-11-21T03:47:46.869Z,4.6
2018-11-21T03:48:36.916Z,4.6
2018-11-21T03:49:26.708Z,4.6
2018-11-21T03:50:16.782Z,4.6
2018-11-21T03:51:06.367Z,4.6
2018-11-21T03:51:56.875Z,4.6
2018-11-21T03:52:46.920Z,4.7
2018-11-21T03:53:37.005Z,4.6
2018-11-21T03:54:26.772Z,4.7
2018-11-21T03:55:17.127Z,4.7
2018-11-21T03:56:07.159Z,4.7
2018-11-21T03:56:57.510Z,4.7
2018-11-21T03:57:47.292Z,4.7
2018-11-21T03:58:37.614Z,4.7
2018-11-21T03:59:27.219Z,4.7
2018-11-21T04:00:17.270Z,4.7
2018-11-21T04:01:07.538Z,4.7
2018-11-21T04:01:57.379Z,4.8
2018-11-21T04:02:47.622Z,4.8
2018-11-21T04:03:37.721Z,4.8
2018-11-21T04:04:27.769Z,4.8
2018-11-21T04:05:17.518Z,4.8
2018-11-21T04:06:07.844Z,4.8
2018-11-21T04:06:57.649Z,4.8
2018-11-21T04:07:47.700Z,4.8
2018-11-21T04:08:44.030Z,4.8
2018-11-21T04:09:28.460Z,4.8
2018-11-21T04:10:17.876Z,4.8
2018-11-21T04:11:08.804Z,4.8
2018-11-21T04:11:58.576Z,4.8
2018-11-21T04:12:48.366Z,4.8
2018-11-21T04:13:38.123Z,4.8
2018-11-21T04:14:28.445Z,4.8
2018-11-21T04:15:18.026Z,4.8
2018-11-21T04:16:08.274Z,4.8
2018-11-21T04:16:58.408Z,4.8
2018-11-21T04:17:48.674Z,4.8
2018-11-21T04:18:38.730Z,4.8
2018-11-21T04:19:28.225Z,4.8
2018-11-21T04:20:19.127Z,4.8
2018-11-21T04:21:08.898Z,4.8
2018-11-21T04:21:58.811Z,4.8
2018-11-21T04:22:49.028Z,4.8
2018-11-21T04:23:39.195Z,4.8
2018-11-21T04:24:29.137Z,4.8
2018-11-21T04:25:19.805Z,4.8
2018-11-21T04:26:09.243Z,4.9
2018-11-21T04:26:59.117Z,4.9
2018-11-21T04:27:49.387Z,4.9
2018-11-21T04:28:39.466Z,4.9
2018-11-21T04:29:29.500Z,4.8
2018-11-21T04:30:19.855Z,4.9
2018-11-21T04:31:09.124Z,4.9
2018-11-21T04:31:59.665Z,4.9
2018-11-21T04:32:49.729Z,4.9
2018-11-21T04:33:40.070Z,4.9
2018-11-21T04:34:29.433Z,4.9
2018-11-21T04:35:19.897Z,4.9
2018-11-21T04:36:09.971Z,4.9
2018-11-21T04:37:00.331Z,4.9
2018-11-21T04:54:16.563Z,5.1
2018-11-21T04:55:05.920Z,5.1
2018-11-21T04:55:56.158Z,5.1
2018-11-21T04:56:46.521Z,5.1
2018-11-21T04:57:36.273Z,5.1
2018-11-21T04:58:26.602Z,5.1
2018-11-21T04:59:16.088Z,5.1
2018-11-21T05:00:06.438Z,5.2
2018-11-21T05:00:56.504Z,5.1
2018-11-21T05:01:46.853Z,5.1
2018-11-21T05:02:36.428Z,5.2
2018-11-21T05:03:26.401Z,5.1
2018-11-21T05:04:16.981Z,5.2
2018-11-21T05:05:06.315Z,5.2
2018-11-21T05:05:56.265Z,5.2
2018-11-21T05:06:46.328Z,5.2
2018-11-21T05:07:37.248Z,5.2
2018-11-21T05:08:26.767Z,5.2
2018-11-21T05:09:16.900Z,5.2
2018-11-21T05:10:07.427Z,5.2
2018-11-21T05:10:57.189Z,5.3
2018-11-21T05:11:46.760Z,5.3
2018-11-21T05:12:36.535Z,5.3
2018-11-21T05:13:27.667Z,5.3
2018-11-21T05:14:17.920Z,5.2
2018-11-21T05:15:07.762Z,5.3
2018-11-21T05:15:57.247Z,5.3
2018-11-21T05:16:47.892Z,5.3
2018-11-21T05:17:37.457Z,5.3
2018-11-21T05:18:27.722Z,5.3
2018-11-21T05:19:17.492Z,5.3
2018-11-21T05:20:07.491Z,5.3
2018-11-21T05:20:57.724Z,5.3
2018-11-21T05:21:47.924Z,5.3
2018-11-21T05:22:37.802Z,5.3
2018-11-21T05:23:28.069Z,5.3
2018-11-21T05:24:18.123Z,5.3
2018-11-21T05:25:08.004Z,5.3
2018-11-21T05:25:58.236Z,5.3
2018-11-21T05:26:48.011Z,5.3
2018-11-21T05:27:38.626Z,5.3
2018-11-21T05:28:28.396Z,5.3
2018-11-21T05:29:18.288Z,5.3
2018-11-21T05:30:08.196Z,5.3
2018-11-21T05:30:58.586Z,5.3
2018-11-21T05:31:49.204Z,5.3
2018-11-21T05:32:38.116Z,5.3
2018-11-21T05:33:29.100Z,5.3
2018-11-21T05:34:18.533Z,5.3
2018-11-21T05:35:08.863Z,5.3
2018-11-21T05:35:58.926Z,5.3
2018-11-21T05:36:48.981Z,5.3
2018-11-21T05:37:38.753Z,5.3
2018-11-21T05:38:29.108Z,5.3
2018-11-21T05:39:18.869Z,5.3
2018-11-21T05:40:08.941Z,5.3
2018-11-21T05:40:59.025Z,5.3
2018-11-21T05:41:49.328Z,5.3
2018-11-21T05:42:39.373Z,5.3
2018-11-21T05:43:29.160Z,5.3
2018-11-21T05:44:19.493Z,5.3
2018-11-21T05:45:09.530Z,5.3
2018-11-21T05:45:59.830Z,5.3
2018-11-21T05:46:53.548Z,5.3
2018-11-21T05:47:39.449Z,5.3
2018-11-21T05:48:29.499Z,5.3
2018-11-21T05:49:19.569Z,5.3
2018-11-21T05:50:09.885Z,5.4
2018-11-21T05:51:00.463Z,5.4
2018-11-21T05:51:50.065Z,5.4
2018-11-21T05:52:40.072Z,5.4
2018-11-21T05:53:30.122Z,5.4
2018-11-21T05:54:19.919Z,5.4
2018-11-21T05:55:09.954Z,5.4
2018-11-21T05:56:00.587Z,5.4
2018-11-21T05:56:49.510Z,5.4
2018-11-21T05:57:40.162Z,5.4
2018-11-21T05:58:30.502Z,5.4
2018-11-21T05:59:20.554Z,5.4
2018-11-21T06:00:10.917Z,5.4
2018-11-21T06:01:00.415Z,5.4
2018-11-21T06:01:50.991Z,5.4
2018-11-21T06:02:40.787Z,5.4
2018-11-21T06:03:30.858Z,5.4
2018-11-21T06:04:20.412Z,5.4
2018-11-21T06:05:10.756Z,5.4
2018-11-21T06:06:00.719Z,5.4
2018-11-21T06:06:51.342Z,5.4
2018-11-21T06:07:41.119Z,5.4
2018-11-21T06:08:31.181Z,5.4
2018-11-21T06:09:21.451Z,5.4
2018-11-21T06:10:11.096Z,5.4
2018-11-21T06:11:01.661Z,5.4
2018-11-21T06:11:51.679Z,5.4
2018-11-21T06:12:40.905Z,5.4
2018-11-21T06:13:31.523Z,5.4
2018-11-21T06:14:21.028Z,5.4
2018-11-21T06:15:11.160Z,5.4
2018-11-21T06:16:02.315Z,5.4
2018-11-21T06:16:52.053Z,5.4
2018-11-21T06:17:48.871Z,5.4
2018-11-21T06:18:31.855Z,5.4
2018-11-21T06:19:22.322Z,5.5
2018-11-21T06:20:11.821Z,5.4
2018-11-21T06:21:01.871Z,5.5
2018-11-21T06:21:51.525Z,5.5
2018-11-21T06:22:41.618Z,5.5
2018-11-21T06:23:31.933Z,5.5
2018-11-21T06:24:22.283Z,5.5
2018-11-21T06:25:12.035Z,5.5
2018-11-21T06:26:02.947Z,5.5
2018-11-21T06:26:52.468Z,5.5
2018-11-21T06:27:42.520Z,5.5
2018-11-21T06:28:32.563Z,5.5
2018-11-21T06:29:22.340Z,5.5
2018-11-21T06:30:12.479Z,5.5
2018-11-21T06:31:02.730Z,5.5
2018-11-21T06:31:52.510Z,5.5
2018-11-21T06:32:43.137Z,5.5
2018-11-21T06:33:32.910Z,5.6
2018-11-21T06:34:22.960Z,5.6
2018-11-21T06:35:13.292Z,5.6
2018-11-21T06:36:03.358Z,5.6
2018-11-21T06:36:53.436Z,5.6
2018-11-21T06:37:43.520Z,5.6
2018-11-21T06:38:33.517Z,5.6
2018-11-21T06:39:23.610Z,5.6
2018-11-21T06:40:13.361Z,5.6
2018-11-21T06:41:03.709Z,5.6
2018-11-21T06:41:53.755Z,5.6
2018-11-21T06:42:43.846Z,5.6
2018-11-21T06:43:33.608Z,5.6
2018-11-21T06:44:23.939Z,5.6
2018-11-21T06:45:13.719Z,5.6
2018-11-21T06:46:04.043Z,5.6
2018-11-21T06:46:54.096Z,5.6
2018-11-21T06:47:44.156Z,5.6
2018-11-21T06:48:34.221Z,5.6
2018-11-21T06:49:24.001Z,5.6
2018-11-21T06:50:14.328Z,5.6
2018-11-21T06:51:04.403Z,5.6
2018-11-21T06:51:54.449Z,5.7
2018-11-21T06:52:44.539Z,5.7
2018-11-21T06:53:34.601Z,5.7
2018-11-21T06:54:24.627Z,5.7
2018-11-21T06:55:14.691Z,5.7
2018-11-21T06:56:04.796Z,5.7
2018-11-21T06:56:54.809Z,5.7
2018-11-21T06:57:44.289Z,5.7
2018-11-21T06:58:34.350Z,5.7
2018-11-21T06:59:24.976Z,5.8
2018-11-21T07:00:14.768Z,5.8
2018-11-21T07:01:05.113Z,5.8
2018-11-21T07:01:55.148Z,5.8
2018-11-21T07:02:45.207Z,5.8
2018-11-21T07:03:35.260Z,5.8
2018-11-21T07:04:25.040Z,5.8
2018-11-21T07:05:15.375Z,5.8
2018-11-21T07:06:05.435Z,5.8
2018-11-21T07:06:55.495Z,5.8
2018-11-21T07:07:45.559Z,5.8
2018-11-21T07:08:35.330Z,5.8
2018-11-21T07:09:25.390Z,5.8
2018-11-21T07:10:15.765Z,5.8
2018-11-21T07:11:05.505Z,5.8
2018-11-21T07:11:55.855Z,5.9
2018-11-21T07:12:45.860Z,5.9
2018-11-21T07:13:35.678Z,5.9
2018-11-21T07:14:25.729Z,5.9
2018-11-21T07:15:16.081Z,5.9
2018-11-21T07:16:06.131Z,5.9
2018-11-21T07:16:56.188Z,5.9
2018-11-21T07:17:46.504Z,5.9
2018-11-21T07:18:36.312Z,5.9
2018-11-21T07:19:26.363Z,5.9
2018-11-21T07:20:16.146Z,5.9
2018-11-21T07:21:06.476Z,6
2018-11-21T07:21:56.252Z,5.9
2018-11-21T07:22:46.594Z,6
2018-11-21T07:23:36.654Z,6
2018-11-21T07:24:28.406Z,6
2018-11-21T07:25:17.021Z,6
2018-11-21T07:26:06.829Z,6.1
2018-11-21T07:26:56.601Z,6.1
2018-11-21T07:27:46.369Z,6.1
2018-11-21T07:28:36.969Z,6.1
2018-11-21T07:29:34.852Z,6.1
2018-11-21T07:30:16.838Z,6.1
2018-11-21T07:31:06.913Z,6.1
2018-11-21T07:31:57.227Z,6.1
2018-11-21T07:32:47.326Z,6.1
2018-11-21T07:33:37.401Z,6.1
2018-11-21T07:34:27.423Z,6.1
2018-11-21T07:35:20.166Z,6.2
2018-11-21T07:36:07.236Z,6.2
2018-11-21T07:36:57.016Z,6.2
2018-11-21T07:37:47.639Z,6.2
2018-11-21T07:38:37.686Z,6.3
2018-11-21T07:39:28.034Z,6.3
2018-11-21T07:40:17.520Z,6.3
2018-11-21T07:41:07.870Z,6.3
2018-11-21T07:41:57.643Z,6.3
2018-11-21T07:42:47.720Z,6.3
2018-11-21T07:43:38.092Z,6.3
2018-11-21T07:44:27.846Z,6.3
2018-11-21T07:45:17.883Z,6.3
2018-11-21T07:46:08.213Z,6.3
2018-11-21T07:46:58.017Z,6.3
2018-11-21T07:47:48.335Z,6.4
2018-11-21T07:48:38.654Z,6.4
2018-11-21T07:49:28.443Z,6.4
2018-11-21T07:50:18.528Z,6.4
2018-11-21T07:51:08.555Z,6.4
2018-11-21T07:51:58.658Z,6.4
2018-11-21T07:52:48.731Z,6.4
2018-11-21T07:53:38.752Z,6.4
2018-11-21T07:54:28.795Z,6.5
2018-11-21T07:55:18.855Z,6.5
2018-11-21T07:56:08.629Z,6.5
2018-11-21T07:56:58.971Z,6.5
2018-11-21T07:57:49.034Z,6.5
2018-11-21T07:58:39.076Z,6.6
2018-11-21T07:59:28.861Z,6.6
2018-11-21T08:00:19.229Z,6.6
2018-11-21T08:01:09.253Z,6.6
2018-11-21T08:01:59.351Z,6.6
2018-11-21T08:02:49.090Z,6.6
2018-11-21T08:03:39.427Z,6.6
2018-11-21T08:04:29.481Z,6.6
2018-11-21T08:05:19.265Z,6.7
2018-11-21T08:06:09.045Z,6.7
2018-11-21T08:06:59.658Z,6.7
2018-11-21T08:07:49.720Z,6.7
2018-11-21T08:08:39.778Z,6.7
2018-11-21T08:09:29.847Z,6.8
2018-11-21T08:10:19.888Z,6.8
2018-11-21T08:11:09.945Z,6.8
2018-11-21T08:11:59.740Z,6.8
2018-11-21T08:12:50.082Z,6.8
2018-11-21T08:13:40.121Z,6.8
2018-11-21T08:14:30.199Z,6.8
2018-11-21T08:15:21.499Z,6.8
2018-11-21T08:16:10.290Z,6.8
2018-11-21T08:17:00.368Z,6.8
2018-11-21T08:17:50.407Z,6.8
2018-11-21T08:18:40.432Z,6.8
2018-11-21T08:19:30.547Z,6.8
2018-11-21T08:20:20.635Z,6.8
2018-11-21T08:21:10.367Z,6.8
2018-11-21T08:22:00.705Z,6.8
2018-11-21T08:22:50.479Z,6.8
2018-11-21T08:23:40.820Z,6.8
2018-11-21T08:24:30.591Z,6.8
2018-11-21T08:25:21.182Z,6.8
2018-11-21T08:26:10.982Z,6.8
2018-11-21T08:27:01.063Z,6.8
2018-11-21T08:27:50.582Z,6.8
2018-11-21T08:28:41.421Z,6.8
2018-11-21T08:29:31.274Z,6.7
2018-11-21T08:30:21.344Z,6.7
2018-11-21T08:31:11.341Z,6.7
2018-11-21T08:32:01.399Z,6.7
2018-11-21T08:32:50.891Z,6.6
2018-11-21T08:33:41.528Z,6.6
2018-11-21T08:34:31.281Z,6.6
2018-11-21T08:35:21.631Z,6.6
2018-11-21T08:36:11.439Z,6.6
2018-11-21T08:37:01.183Z,6.6
2018-11-21T08:37:51.794Z,6.6
2018-11-21T08:38:41.893Z,6.6
2018-11-21T08:39:31.905Z,6.6
2018-11-21T08:40:21.690Z,6.6
2018-11-21T08:41:12.283Z,6.6
2018-11-21T08:42:02.121Z,6.6
2018-11-21T09:08:42.046Z,6.1
2018-11-21T09:09:31.275Z,6.1
2018-11-21T09:10:21.331Z,6.1
2018-11-21T09:11:11.402Z,6.1
2018-11-21T09:12:01.521Z,6.1
2018-11-21T09:12:51.488Z,6.1
2018-11-21T09:13:41.821Z,6.1
2018-11-21T09:14:31.599Z,6.1
2018-11-21T09:15:21.106Z,6.1
2018-11-21T09:16:11.756Z,6.1
2018-11-21T09:17:01.773Z,6.1
2018-11-21T09:17:51.824Z,6
2018-11-21T09:18:42.409Z,6.1
2018-11-21T09:19:31.681Z,6.1
2018-11-21T09:20:22.025Z,6.1
2018-11-21T09:21:11.813Z,6.1
2018-11-21T09:22:02.131Z,6.1
2018-11-21T09:22:52.220Z,6.1
2018-11-21T09:23:42.212Z,6.1
2018-11-21T09:24:32.311Z,6.1
2018-11-21T09:25:22.102Z,6.1
2018-11-21T09:26:12.415Z,6
2018-11-21T09:27:02.480Z,6
2018-11-21T09:27:51.677Z,6
2018-11-21T09:28:42.297Z,6
2018-11-21T09:29:32.665Z,6
2018-11-21T09:30:22.738Z,6
2018-11-21T09:31:12.757Z,6
2018-11-21T09:32:02.258Z,5.9
2018-11-21T09:32:52.304Z,5.9
2018-11-21T09:33:42.662Z,5.9
2018-11-21T09:34:32.985Z,5.9
2018-11-21T09:35:23.063Z,5.9
2018-11-21T09:36:12.865Z,5.9
2018-11-21T09:37:03.176Z,5.9
2018-11-21T09:37:53.224Z,5.9
2018-11-21T09:38:43.009Z,5.9
2018-11-21T09:39:33.584Z,5.9
2018-11-21T09:40:23.129Z,5.8
2018-11-21T09:41:13.496Z,5.8
2018-11-21T09:42:03.523Z,5.8
2018-11-21T09:42:53.571Z,5.8
2018-11-21T09:43:43.617Z,5.8
2018-11-21T09:44:33.391Z,5.8
2018-11-21T09:45:23.736Z,5.8
2018-11-21T09:46:19.071Z,5.8
2018-11-21T09:47:03.571Z,5.8
2018-11-21T09:47:53.656Z,5.7
2018-11-21T09:48:43.955Z,5.7
2018-11-21T09:49:34.091Z,5.7
2018-11-21T09:50:24.729Z,5.7
2018-11-21T09:51:14.138Z,5.7
2018-11-21T09:52:04.205Z,5.6
2018-11-21T09:52:54.267Z,5.6
2018-11-21T09:53:43.476Z,5.6
2018-11-21T09:54:34.382Z,5.6
2018-11-21T09:55:24.168Z,5.6
2018-11-21T09:56:14.213Z,5.6
2018-11-21T09:57:04.563Z,5.6
2018-11-21T09:57:54.610Z,5.6
2018-11-21T09:58:44.380Z,5.6
2018-11-21T09:59:34.718Z,5.6
2018-11-21T10:00:24.748Z,5.6
2018-11-21T10:01:14.851Z,5.5
2018-11-21T10:02:04.908Z,5.5
2018-11-21T10:02:54.967Z,5.5
2018-11-21T10:03:45.013Z,5.5
2018-11-21T10:04:35.370Z,5.5
2018-11-21T10:05:25.640Z,5.5
2018-11-21T10:06:14.895Z,5.5
2018-11-21T10:07:04.965Z,5.5
2018-11-21T10:07:55.307Z,5.4
2018-11-21T10:08:45.359Z,5.4
2018-11-21T10:09:35.139Z,5.4
2018-11-21T10:10:25.490Z,5.4
2018-11-21T10:11:15.529Z,5.4
2018-11-21T10:12:05.580Z,5.4
2018-11-21T10:12:55.375Z,5.4
2018-11-21T10:13:45.744Z,5.4
2018-11-21T10:14:35.565Z,5.4
2018-11-21T10:15:25.594Z,5.4
2018-11-21T10:16:15.887Z,5.4
2018-11-21T10:17:05.668Z,5.4
2018-11-21T10:17:55.991Z,5.4
2018-11-21T10:18:46.047Z,5.4
2018-11-21T10:19:36.411Z,5.4
2018-11-21T10:20:26.454Z,5.4
2018-11-21T10:21:16.269Z,5.3
2018-11-21T10:22:06.274Z,5.3
2018-11-21T10:22:56.329Z,5.4
2018-11-21T10:23:47.209Z,5.3
2018-11-21T10:24:36.446Z,5.3
2018-11-21T10:25:26.511Z,5.3
2018-11-21T10:26:16.563Z,5.3
2018-11-21T10:27:06.354Z,5.3
2018-11-21T10:27:56.681Z,5.3
2018-11-21T10:28:46.736Z,5.3
2018-11-21T10:29:37.403Z,5.2
2018-11-21T10:30:26.853Z,5.3
2018-11-21T10:31:16.911Z,5.2
2018-11-21T10:32:06.698Z,5.2
2018-11-21T10:32:57.023Z,5.2
2018-11-21T10:33:46.834Z,5.2
2018-11-21T10:34:37.115Z,5.1
2018-11-21T10:35:27.182Z,5.1
2018-11-21T10:36:17.253Z,5.1
2018-11-21T10:37:07.045Z,5.1
2018-11-21T10:37:57.369Z,5.1
2018-11-21T10:38:47.445Z,5.1
2018-11-21T10:39:37.206Z,5.1
2018-11-21T10:40:27.289Z,5.1
2018-11-21T10:41:17.590Z,5.1
2018-11-21T10:42:07.708Z,5.1
2018-11-21T10:42:57.714Z,5.1
2018-11-21T10:43:47.232Z,5.1
2018-11-21T10:44:37.847Z,5.1
2018-11-21T10:45:27.891Z,5.1
2018-11-21T10:46:17.392Z,5.1
2018-11-21T10:47:07.435Z,5.1
2018-11-21T10:47:57.797Z,5.1
2018-11-21T10:48:47.845Z,5.1
2018-11-21T10:49:38.200Z,5.1
2018-11-21T10:50:28.042Z,5.1
2018-11-21T10:51:18.365Z,5.1
2018-11-21T10:52:08.407Z,5.1
2018-11-21T10:52:58.422Z,5.1
2018-11-21T10:53:48.204Z,5.1
2018-11-21T10:54:38.259Z,5.1
2018-11-21T10:55:28.586Z,5.1
2018-11-21T10:56:18.644Z,5.1
2018-11-21T10:57:08.459Z,5.1
2018-11-21T10:57:58.476Z,5.1
2018-11-21T10:58:48.531Z,5.1
2018-11-21T10:59:38.588Z,5.1
2018-11-21T11:00:28.951Z,5.2
2018-11-21T11:01:18.451Z,5.1
2018-11-21T11:02:09.052Z,5.1
2018-11-21T11:02:59.116Z,5.2
2018-11-21T11:03:50.116Z,5.1
2018-11-21T11:04:39.229Z,5.2
2018-11-21T11:05:28.990Z,5.2
2018-11-21T11:06:19.333Z,5.2
2018-11-21T11:07:09.126Z,5.2
2018-11-21T11:07:59.200Z,5.2
2018-11-21T11:08:49.537Z,5.2
2018-11-21T11:09:39.585Z,5.2
2018-11-21T11:10:29.618Z,5.3
2018-11-21T11:11:19.685Z,5.2
2018-11-21T11:12:10.015Z,5.3
2018-11-21T11:12:59.810Z,5.3
2018-11-21T11:13:49.878Z,5.3
2018-11-21T11:14:39.638Z,5.3
2018-11-21T11:15:29.972Z,5.3
2018-11-21T11:16:20.006Z,5.3
2018-11-21T11:17:09.815Z,5.3
2018-11-21T11:18:01.601Z,5.4
2018-11-21T11:18:50.208Z,5.4
2018-11-21T11:19:40.261Z,5.4
2018-11-21T11:20:30.315Z,5.4
2018-11-21T11:21:20.100Z,5.4
2018-11-21T11:22:10.153Z,5.4
2018-11-21T11:23:00.214Z,5.4
2018-11-21T11:23:50.550Z,5.4
2018-11-21T11:24:40.332Z,5.5
2018-11-21T11:25:30.671Z,5.5
2018-11-21T11:26:20.789Z,5.5
2018-11-21T11:27:10.504Z,5.5
2018-11-21T11:28:01.145Z,5.6
2018-11-21T11:28:50.629Z,5.6
2018-11-21T11:29:40.122Z,5.6
2018-11-21T11:30:31.031Z,5.6
2018-11-21T11:31:20.828Z,5.6
2018-11-21T11:32:11.131Z,5.6
2018-11-21T11:33:00.711Z,5.6
2018-11-21T11:33:50.694Z,5.7
2018-11-21T11:34:40.471Z,5.7
2018-11-21T11:35:31.106Z,5.7
2018-11-21T11:36:21.151Z,5.8
2018-11-21T11:37:10.928Z,5.7
2018-11-21T11:38:01.319Z,5.7
2018-11-21T11:38:50.747Z,5.8
2018-11-21T11:39:41.662Z,5.8
2018-11-21T11:40:31.261Z,5.8
2018-11-21T11:41:21.216Z,5.8
2018-11-21T11:42:11.285Z,5.8
2018-11-21T11:43:01.873Z,5.8
2018-11-21T11:43:51.689Z,5.8
2018-11-21T11:44:41.728Z,5.8
2018-11-21T11:45:31.819Z,5.8
2018-11-21T11:46:22.128Z,5.8
2018-11-21T11:47:12.181Z,5.8
2018-11-21T11:48:01.977Z,5.8
2018-11-21T11:48:52.055Z,5.8
2018-11-21T11:49:41.791Z,5.8
2018-11-21T11:50:32.433Z,5.8
2018-11-21T11:51:21.916Z,5.8
2018-11-21T11:52:11.963Z,5.8
2018-11-21T11:53:02.333Z,5.8
2018-11-21T11:53:52.082Z,5.8
2018-11-21T11:54:42.238Z,5.8
2018-11-21T11:55:32.203Z,5.8
2018-11-21T11:56:22.550Z,5.8
2018-11-21T11:57:12.402Z,5.8
2018-11-21T11:58:02.959Z,5.7
2018-11-21T11:58:53.060Z,5.7
2018-11-21T11:59:42.775Z,5.7
2018-11-21T12:00:32.837Z,5.7
2018-11-21T12:01:22.622Z,5.6
2018-11-21T12:02:13.981Z,5.6
2018-11-21T12:03:02.442Z,5.6
2018-11-21T12:03:59.275Z,5.6
2018-11-21T12:04:42.922Z,5.6
2018-11-21T12:05:32.577Z,5.6
2018-11-21T12:06:22.761Z,5.6
2018-11-21T12:07:12.729Z,5.6
2018-11-21T12:08:03.372Z,5.6
2018-11-21T12:08:53.402Z,5.6
2018-11-21T12:09:43.472Z,5.6
2018-11-21T12:10:33.534Z,5.6
2018-11-21T12:11:23.866Z,5.6
2018-11-21T12:12:13.683Z,5.5
2018-11-21T12:13:03.419Z,5.5
2018-11-21T12:13:53.709Z,5.5
2018-11-21T12:14:44.102Z,5.5
2018-11-21T12:15:33.689Z,5.5
2018-11-21T12:16:23.903Z,5.5
2018-11-21T12:17:14.270Z,5.4
2018-11-21T12:18:04.342Z,5.4
2018-11-21T12:18:55.581Z,5.4
2018-11-21T12:19:43.822Z,5.4
2018-11-21T12:20:34.476Z,5.4
2018-11-21T12:21:23.698Z,5.4
2018-11-21T12:22:14.605Z,5.4
2018-11-21T12:23:04.680Z,5.4
2018-11-21T12:23:55.949Z,5.4
2018-11-21T12:24:44.230Z,5.4
2018-11-21T12:25:34.742Z,5.4
2018-11-21T12:26:24.121Z,5.4
2018-11-21T12:27:14.983Z,5.4
2018-11-21T12:28:04.714Z,5.4
2018-11-21T12:28:54.206Z,5.4